Time;durP1;ratioP1;P1;durP2;ratioP2;P2;SDS_P1;SDS_P2;PMS_P1;PMS_P2;Temp;Humidity;BMP_temperature;BMP_pressure;BME280_temperature;BME280_humidity;BME280_pressure;Samples;Min_cycle;Max_cycle;Signal;HPM_P1;HPM_P2
2022/06/30 00:03:23;;;;;;;11.48;7.90;;;;;;;15.24;98.39;100916.81;10481719;28;20044;-80
2022/06/30 00:08:24;;;;;;;16.27;9.68;;;;;;;15.20;99.33;100911.41;10471610;28;20044;-79
2022/06/30 00:13:24;;;;;;;12.68;8.10;;;;;;;15.15;100.00;100910.38;10472466;28;20040;-79
2022/06/30 00:18:25;;;;;;;11.57;9.00;;;;;;;15.04;100.00;100913.59;10511787;28;20399;-79
2022/06/30 00:23:25;;;;;;;16.00;9.55;;;;;;;14.98;100.00;100906.38;10530434;28;20092;-79
2022/06/30 00:28:26;;;;;;;19.88;10.95;;;;;;;15.00;100.00;100901.16;10488058;28;20472;-79
2022/06/30 00:33:26;;;;;;;13.02;9.55;;;;;;;14.89;100.00;100894.69;10472016;28;20068;-79
2022/06/30 00:38:27;;;;;;;12.73;9.85;;;;;;;14.80;100.00;100890.91;10519005;28;20040;-79
2022/06/30 00:43:27;;;;;;;12.85;10.27;;;;;;;14.77;100.00;100888.19;10529146;28;20032;-80
2022/06/30 00:48:28;;;;;;;11.95;10.07;;;;;;;14.79;100.00;100889.13;10495829;28;20128;-80
2022/06/30 00:53:28;;;;;;;15.02;9.93;;;;;;;14.70;100.00;100878.31;10453677;28;20047;-79
2022/06/30 00:58:29;;;;;;;15.65;11.15;;;;;;;14.60;100.00;100877.09;10495439;28;20039;-79
2022/06/30 01:03:31;;;;;;;12.98;11.10;;;;;;;14.62;100.00;100885.94;10529154;28;20036;-79
2022/06/30 01:08:32;;;;;;;14.52;11.88;;;;;;;14.59;100.00;100885.81;10426790;28;20041;-79
2022/06/30 01:13:34;;;;;;;23.25;13.63;;;;;;;14.59;100.00;100893.72;10445127;28;20037;-79
2022/06/30 01:18:34;;;;;;;13.13;10.65;;;;;;;14.57;100.00;100892.78;10472159;28;20094;-79
2022/06/30 01:23:35;;;;;;;13.30;10.40;;;;;;;14.56;100.00;100905.91;10475232;28;20106;-77
2022/06/30 01:28:35;;;;;;;19.48;11.18;;;;;;;14.56;100.00;100912.06;10439710;28;20090;-78
2022/06/30 01:33:36;;;;;;;22.88;10.80;;;;;;;14.53;100.00;100899.72;10454529;28;20132;-80
2022/06/30 01:38:36;;;;;;;17.25;11.60;;;;;;;14.53;100.00;100907.63;10484928;28;20084;-79
2022/06/30 01:43:37;;;;;;;16.88;11.05;;;;;;;14.51;100.00;100908.41;10473920;28;20052;-80
2022/06/30 01:48:37;;;;;;;11.93;10.45;;;;;;;14.45;100.00;100903.84;10444215;28;20504;-80
2022/06/30 01:53:38;;;;;;;13.50;11.90;;;;;;;14.32;100.00;100917.44;10456256;28;20040;-80
2022/06/30 01:58:38;;;;;;;16.38;12.20;;;;;;;14.29;100.00;100912.97;10469184;28;20094;-80
2022/06/30 02:03:39;;;;;;;13.85;11.15;;;;;;;14.24;100.00;100912.81;10472912;28;20199;-79
2022/06/30 02:08:40;;;;;;;19.77;13.23;;;;;;;14.24;100.00;100914.53;10443440;28;20076;-79
2022/06/30 02:13:42;;;;;;;15.57;10.93;;;;;;;14.14;100.00;100921.25;10453850;28;20064;-78
2022/06/30 02:18:42;;;;;;;15.30;13.32;;;;;;;14.10;100.00;100922.88;10486969;28;20561;-78
2022/06/30 02:23:43;;;;;;;14.63;11.55;;;;;;;14.13;100.00;100926.44;10477482;28;20175;-79
2022/06/30 02:28:43;;;;;;;18.50;13.77;;;;;;;14.07;100.00;100927.16;10441930;28;20373;-79
2022/06/30 02:33:44;;;;;;;13.35;11.52;;;;;;;14.10;100.00;100922.88;10450167;28;20124;-79
2022/06/30 02:38:44;;;;;;;19.38;13.70;;;;;;;14.09;100.00;100922.84;10483314;28;20040;-79
2022/06/30 02:43:48;;;;;;;18.52;13.68;;;;;;;14.04;100.00;100919.16;10472770;28;20037;-78
2022/06/30 02:48:48;;;;;;;16.10;13.35;;;;;;;13.88;100.00;100915.06;10442171;28;20120;-78
2022/06/30 02:53:49;;;;;;;24.27;15.25;;;;;;;13.72;100.00;100917.16;10452561;28;20037;-79
2022/06/30 02:58:50;;;;;;;15.25;12.95;;;;;;;13.59;100.00;100915.84;10466428;28;20044;-79
2022/06/30 03:03:50;;;;;;;27.50;15.30;;;;;;;13.55;100.00;100919.22;10472511;28;20044;-79
2022/06/30 03:08:51;;;;;;;20.83;14.82;;;;;;;13.55;100.00;100903.44;10430005;28;20595;-80
2022/06/30 03:13:52;;;;;;;19.63;17.27;;;;;;;13.43;100.00;100905.63;10430066;28;20044;-78
2022/06/30 03:18:52;;;;;;;19.05;15.60;;;;;;;13.33;100.00;100925.34;10440889;28;20044;-78
2022/06/30 03:23:53;;;;;;;21.48;15.13;;;;;;;13.29;100.00;100924.38;10452414;28;20040;-79
2022/06/30 03:28:53;;;;;;;26.38;18.75;;;;;;;13.27;100.00;100912.91;10465611;28;20060;-79
2022/06/30 03:33:54;;;;;;;18.63;15.60;;;;;;;13.20;100.00;100910.88;10454179;28;20037;-79
2022/06/30 03:38:54;;;;;;;19.95;15.00;;;;;;;13.23;100.00;100911.00;10444743;28;20045;-79
2022/06/30 03:43:55;;;;;;;23.60;16.02;;;;;;;13.23;100.00;100905.75;10459258;28;20062;-79
2022/06/30 03:48:55;;;;;;;21.35;16.60;;;;;;;13.20;100.00;100908.25;10473769;28;20120;-78
2022/06/30 03:53:56;;;;;;;24.23;17.40;;;;;;;13.17;100.00;100906.38;10480056;28;20037;-78
2022/06/30 03:58:57;;;;;;;20.95;17.08;;;;;;;13.18;100.00;100907.28;10448810;28;20122;-78
2022/06/30 04:03:57;;;;;;;23.60;17.23;;;;;;;13.20;100.00;100897.75;10458236;28;20033;-79
2022/06/30 04:08:58;;;;;;;23.80;18.08;;;;;;;13.31;100.00;100901.66;10472684;28;20113;-79
2022/06/30 04:13:58;;;;;;;25.05;17.35;;;;;;;13.35;100.00;100903.56;10445271;28;20482;-77
2022/06/30 04:18:59;;;;;;;25.90;18.02;;;;;;;13.41;100.00;100895.00;10452431;28;20040;-78
2022/06/30 04:23:59;;;;;;;22.17;17.50;;;;;;;13.50;100.00;100905.88;10457312;28;20052;-78
2022/06/30 04:29:00;;;;;;;21.55;17.23;;;;;;;13.79;100.00;100894.63;10452982;28;20057;-78
2022/06/30 04:34:03;;;;;;;20.60;16.27;;;;;;;14.15;100.00;100904.63;10444750;28;20036;-78
2022/06/30 04:39:04;;;;;;;18.63;15.00;;;;;;;14.57;100.00;100900.69;10444564;28;20045;-76
2022/06/30 04:44:07;;;;;;;17.05;13.10;;;;;;;15.01;100.00;100889.78;10470619;28;20071;-76
2022/06/30 04:49:08;;;;;;;23.65;11.10;;;;;;;15.14;100.00;100901.56;10499149;28;20119;-78
2022/06/30 04:54:08;;;;;;;12.18;10.18;;;;;;;15.36;100.00;100913.66;10519856;28;20123;-77
2022/06/30 04:59:09;;;;;;;12.60;8.15;;;;;;;15.63;100.00;100910.00;10489422;28;20457;-77
2022/06/30 05:04:09;;;;;;;10.27;8.63;;;;;;;16.03;98.74;100901.38;10494678;28;20071;-80
2022/06/30 05:09:10;;;;;;;11.15;8.77;;;;;;;16.48;93.74;100916.59;10496756;28;20036;-76
2022/06/30 05:14:10;;;;;;;10.27;7.55;;;;;;;16.98;92.84;100905.44;10489109;28;20569;-78
2022/06/30 05:19:11;;;;;;;9.82;7.65;;;;;;;17.57;91.41;100918.97;10506237;28;20036;-81
2022/06/30 05:29:31;;;;;;;13.25;6.75;;;;;;;19.46;78.18;100906.06;10493049;28;20036;-77
2022/06/30 05:34:31;;;;;;;10.33;7.53;;;;;;;20.12;75.70;100918.28;10491751;28;20085;-76
2022/06/30 05:39:32;;;;;;;9.20;7.33;;;;;;;20.59;69.96;100911.56;10486615;28;20136;-79
2022/06/30 05:44:33;;;;;;;11.23;7.43;;;;;;;20.77;68.60;100894.81;10524684;28;20086;-77
2022/06/30 05:49:33;;;;;;;11.67;8.83;;;;;;;21.45;66.30;100883.66;10496354;28;20046;-77
2022/06/30 05:54:34;;;;;;;15.60;9.77;;;;;;;21.89;65.52;100892.63;10464035;28;20119;-78
2022/06/30 05:59:34;;;;;;;26.37;10.20;;;;;;;22.06;64.70;100889.09;10501544;28;20040;-77
2022/06/30 06:04:35;;;;;;;12.87;9.27;;;;;;;22.21;63.94;100889.09;10493368;28;20598;-77
2022/06/30 06:09:35;;;;;;;13.60;10.03;;;;;;;22.32;62.29;100901.53;10478066;28;20045;-78
2022/06/30 06:14:36;;;;;;;13.40;10.13;;;;;;;22.97;60.74;100905.00;10504412;28;20476;-76
2022/06/30 06:19:36;;;;;;;12.00;9.50;;;;;;;22.99;60.57;100902.31;10486143;28;20044;-76
2022/06/30 06:24:37;;;;;;;11.63;9.60;;;;;;;23.06;62.29;100913.88;10489781;28;20891;-76
2022/06/30 06:29:38;;;;;;;13.83;10.07;;;;;;;23.67;59.43;100904.69;10497189;28;20112;-76
2022/06/30 06:34:38;;;;;;;11.93;10.20;;;;;;;23.74;59.85;100913.59;10494057;28;20117;-77
2022/06/30 06:39:38;;;;;;;15.63;12.13;;;;;;;24.00;57.90;100918.78;10467194;28;20468;-76
2022/06/30 06:44:39;;;;;;;14.50;12.03;;;;;;;23.92;58.90;100925.91;10482323;28;20047;-76
2022/06/30 06:49:40;;;;;;;13.50;11.50;;;;;;;24.43;58.91;100928.25;10467621;28;20387;-76
2022/06/30 06:54:40;;;;;;;21.43;16.30;;;;;;;24.67;56.29;100922.66;10459388;28;20041;-76
2022/06/30 06:59:41;;;;;;;22.97;18.63;;;;;;;25.05;55.98;100927.66;10400061;28;20048;-76
2022/06/30 07:04:41;;;;;;;17.73;13.33;;;;;;;25.04;56.73;100938.34;10415842;28;20509;-77
2022/06/30 07:09:42;;;;;;;15.17;13.37;;;;;;;25.08;54.71;100945.44;10427447;28;20051;-77
2022/06/30 07:14:43;;;;;;;17.47;11.77;;;;;;;25.11;54.83;100952.56;10468345;28;20116;-76
2022/06/30 07:19:43;;;;;;;17.67;13.13;;;;;;;25.31;53.65;100949.63;10447646;28;20045;-76
2022/06/30 07:24:44;;;;;;;14.47;12.93;;;;;;;25.53;54.53;100944.03;10446680;28;20460;-76
2022/06/30 07:29:44;;;;;;;15.07;13.47;;;;;;;25.49;53.71;100954.78;10440939;28;20481;-75
2022/06/30 07:34:45;;;;;;;24.33;13.47;;;;;;;25.60;54.88;100972.53;10419901;28;20067;-76
2022/06/30 07:39:45;;;;;;;15.83;13.13;;;;;;;25.77;53.67;100981.22;10467955;28;20037;-76
2022/06/30 07:44:46;;;;;;;14.63;9.97;;;;;;;26.20;52.22;100985.13;10439627;28;20461;-76
2022/06/30 07:49:47;;;;;;;14.15;9.60;;;;;;;26.20;52.05;100992.25;10442190;28;20039;-77
2022/06/30 07:54:47;;;;;;;17.57;9.17;;;;;;;25.94;53.16;100990.81;10407012;28;20494;-76
2022/06/30 07:59:48;;;;;;;10.77;6.90;;;;;;;26.23;53.61;100984.16;10449349;28;20049;-78
2022/06/30 08:04:48;;;;;;;12.93;7.67;;;;;;;25.98;52.45;100989.00;10442180;28;20116;-76
2022/06/30 08:09:49;;;;;;;10.03;6.93;;;;;;;26.56;50.50;100980.97;10439475;28;20037;-80
2022/06/30 08:14:52;;;;;;;11.93;7.80;;;;;;;27.78;47.41;100970.53;10441570;28;20116;-78
2022/06/30 08:19:53;;;;;;;11.93;8.32;;;;;;;28.33;47.17;100967.50;10488076;28;20722;-78
2022/06/30 08:24:55;;;;;;;13.30;7.25;;;;;;;28.73;46.11;100969.16;10525414;28;20028;-77
2022/06/30 08:29:55;;;;;;;11.20;6.93;;;;;;;28.06;49.08;100971.72;10511520;28;20047;-78
2022/06/30 08:34:56;;;;;;;13.07;7.10;;;;;;;28.53;47.65;100984.94;10513399;28;20506;-76
2022/06/30 08:45:18;;;;;;;10.30;8.45;;;;;;;28.51;47.40;100993.06;10530124;28;20262;-77
2022/06/30 08:50:19;;;;;;;10.88;7.50;;;;;;;28.51;46.41;100981.41;10512991;28;20036;-76
2022/06/30 08:55:30;;;;;;;11.65;7.38;;;;;;;28.93;44.53;100983.03;10512687;28;20037;-77
2022/06/30 09:00:32;;;;;;;11.65;7.32;;;;;;;28.78;46.03;100990.63;10531266;28;20468;-77
2022/06/30 09:05:32;;;;;;;;;;;;;;;29.25;46.62;100975.88;10531642;28;20099;-77
2022/06/30 09:10:32;;;;;;;12.07;6.83;;;;;;;28.72;45.72;100975.47;10528430;28;19994;-76
2022/06/30 09:15:38;;;;;;;14.43;8.47;;;;;;;29.66;42.82;100972.88;10530017;28;20456;-76
2022/06/30 09:20:39;;;;;;;13.10;7.60;;;;;;;29.87;42.19;100966.81;10511912;28;20496;-76
2022/06/30 09:25:39;;;;;;;;;;;;;;;29.25;44.70;100962.41;10494705;28;20043;-77
2022/06/30 09:30:40;;;;;;;10.23;7.93;;;;;;;29.70;44.43;100970.06;10511153;28;19916;-77
2022/06/30 09:35:40;;;;;;;11.95;7.05;;;;;;;30.57;43.02;100961.88;10510763;28;20519;-77
2022/06/30 09:41:00;;;;;;;11.18;7.25;;;;;;;30.74;43.73;100973.94;10527624;28;20534;-77
2022/06/30 09:46:00;;;;;;;10.98;7.25;;;;;;;32.11;38.47;100963.41;10513392;28;20040;-78
2022/06/30 09:51:02;;;;;;;;;;;;;;;32.21;38.09;100956.69;10510770;28;20834;-77
2022/06/30 09:56:13;;;;;;;8.63;5.00;;;;;;;30.67;40.21;100956.19;10515599;28;20393;-77
2022/06/30 10:01:13;;;;;;;10.45;7.03;;;;;;;31.22;40.25;100957.84;10528998;28;20377;-77
2022/06/30 10:06:14;;;;;;;;;;;;;;;31.16;40.09;100959.81;10509982;28;20055;-77
2022/06/30 10:11:15;;;;;;;9.93;6.53;;;;;;;29.42;45.53;100970.91;10526571;28;19969;-77
2022/06/30 10:16:16;;;;;;;9.97;5.87;;;;;;;29.11;44.51;100970.84;10492808;28;20109;-77
2022/06/30 10:21:20;;;;;;;10.82;5.60;;;;;;;29.68;42.64;100977.31;10525598;28;20036;-77
2022/06/30 10:31:45;;;;;;;10.05;5.75;;;;;;;27.19;48.54;100984.31;10527638;28;20040;-77
2022/06/30 10:37:24;;;;;;;10.30;7.35;;;;;;;27.76;46.76;100975.06;10508973;28;20040;-77
2022/06/30 10:42:43;;;;;;;13.90;7.05;;;;;;;29.13;48.14;100978.00;10440924;28;20101;-77
2022/06/30 10:47:57;;;;;;;18.38;8.07;;;;;;;29.49;45.14;100971.59;10466069;28;20490;-77
2022/06/30 10:52:57;;;;;;;15.05;8.63;;;;;;;30.28;45.01;100974.56;10454301;28;20044;-77
2022/06/30 10:58:00;;;;;;;15.40;7.10;;;;;;;30.88;40.87;100963.53;10453769;28;20124;-77
2022/06/30 11:03:01;;;;;;;10.15;6.63;;;;;;;31.28;38.90;100953.06;10442132;28;20179;-77
2022/06/30 11:08:36;;;;;;;8.50;5.37;;;;;;;31.16;39.49;100951.69;10450290;28;21776;-77
2022/06/30 11:13:36;;;;;;;11.68;4.90;;;;;;;31.44;40.83;100957.91;10484458;28;20741;-77
2022/06/30 11:18:37;;;;;;;13.23;7.00;;;;;;;31.17;39.38;100939.97;10449102;28;20033;-78
2022/06/30 11:23:46;;;;;;;10.10;3.35;;;;;;;33.16;38.82;100941.75;10443883;28;20329;-78
2022/06/30 11:28:47;;;;;;;6.97;5.03;;;;;;;33.73;34.19;100921.94;10484341;28;20052;-80
2022/06/30 11:33:54;;;;;;;;;;;;;;;33.45;37.13;100921.44;10464244;28;20534;-78
2022/06/30 11:38:59;;;;;;;11.13;4.30;;;;;;;32.44;38.60;100914.22;10481096;28;20382;-78
2022/06/30 11:44:00;;;;;;;16.13;5.72;;;;;;;32.08;37.60;100910.28;10482797;28;20033;-77
2022/06/30 11:49:03;;;;;;;6.70;4.22;;;;;;;32.19;37.88;100902.59;10465655;28;20668;-78
2022/06/30 11:54:05;;;;;;;9.63;6.40;;;;;;;30.70;37.61;100894.81;10481596;28;20067;-77
2022/06/30 11:59:06;;;;;;;8.73;4.88;;;;;;;29.59;41.87;100892.19;10499697;28;20114;-77
2022/06/30 12:04:13;;;;;;;11.02;6.40;;;;;;;28.87;45.16;100879.03;10529821;28;20048;-77
2022/06/30 12:09:14;;;;;;;9.77;5.13;;;;;;;29.55;41.41;100878.88;10491774;28;20050;-78
2022/06/30 12:14:15;;;;;;;14.30;6.03;;;;;;;29.69;43.87;100870.31;10540706;28;20078;-78
2022/06/30 12:19:15;;;;;;;6.47;5.10;;;;;;;30.11;41.93;100861.75;10502042;28;20033;-77
2022/06/30 12:24:16;;;;;;;9.70;5.30;;;;;;;29.89;44.35;100856.19;10462257;28;20155;-77
2022/06/30 12:29:16;;;;;;;8.43;3.60;;;;;;;31.29;41.14;100844.00;10441860;28;20032;-78
2022/06/30 12:34:17;;;;;;;28.60;19.67;;;;;;;31.29;38.84;100841.31;10456794;28;20115;-78
2022/06/30 12:39:17;;;;;;;11.47;5.73;;;;;;;32.06;36.46;100837.28;10458063;28;20043;-78
2022/06/30 12:44:28;;;;;;;6.90;4.80;;;;;;;32.93;38.22;100816.31;10436373;28;20041;-79
2022/06/30 12:49:29;;;;;;;11.00;5.28;;;;;;;30.73;39.59;100823.63;10487441;28;20056;-78
2022/06/30 12:54:29;;;;;;;9.32;3.58;;;;;;;30.07;43.26;100816.06;10494439;28;20342;-78
2022/06/30 12:59:30;;;;;;;11.43;4.13;;;;;;;30.40;41.20;100813.97;10476165;28;20039;-79
2022/06/30 13:04:31;;;;;;;9.80;3.97;;;;;;;31.38;38.67;100806.72;10522905;28;20563;-79
2022/06/30 13:09:36;;;;;;;10.73;4.82;;;;;;;31.50;37.21;100808.94;10530815;28;20048;-79
2022/06/30 13:14:37;;;;;;;12.95;5.47;;;;;;;31.13;40.53;100803.19;10510048;28;20093;-79
2022/06/30 13:19:37;;;;;;;10.40;5.80;;;;;;;32.11;39.00;100799.19;10470326;28;20036;-79
2022/06/30 13:24:38;;;;;;;11.05;6.15;;;;;;;32.80;36.19;100789.78;10486708;28;20024;-79
2022/06/30 13:29:39;;;;;;;11.23;6.97;;;;;;;32.68;38.81;100784.06;10514276;28;20043;-78
2022/06/30 13:34:39;;;;;;;11.00;6.68;;;;;;;32.17;37.09;100781.81;10472833;28;20048;-78
2022/06/30 13:39:40;;;;;;;8.25;6.45;;;;;;;32.13;41.97;100782.88;10462810;28;20122;-79
2022/06/30 13:44:40;;;;;;;11.18;6.43;;;;;;;31.91;38.69;100767.59;10427925;28;20036;-78
2022/06/30 13:49:43;;;;;;;7.30;5.07;;;;;;;32.32;38.32;100773.03;10443491;28;20044;-79
2022/06/30 13:54:44;;;;;;;19.38;5.10;;;;;;;32.56;37.96;100777.38;10442635;28;20396;-79
2022/06/30 13:59:44;;;;;;;;;;;;;;;32.83;36.46;100766.19;10439136;28;20042;-77
2022/06/30 14:04:45;;;;;;;7.53;3.88;;;;;;;33.01;40.37;100762.63;10491200;27;20291;-77
2022/06/30 14:09:45;;;;;;;;;;;;;;;32.91;37.14;100756.78;10477899;28;20496;-76
2022/06/30 14:14:46;;;;;;;12.90;5.07;;;;;;;32.71;37.17;100746.84;10450072;28;20365;-76
2022/06/30 14:19:47;;;;;;;;;;;;;;;32.31;38.00;100743.28;10441548;28;20383;-75
2022/06/30 14:24:48;;;;;;;9.93;4.73;;;;;;;31.85;40.92;100741.66;10487833;28;19929;-76
2022/06/30 14:29:48;;;;;;;9.60;5.82;;;;;;;31.14;40.09;100745.47;10427893;28;20051;-77
2022/06/30 14:34:49;;;;;;;15.02;5.82;;;;;;;30.23;42.77;100739.03;10497726;28;20119;-77
2022/06/30 14:39:51;;;;;;;13.40;7.10;;;;;;;28.94;44.77;100743.28;10464166;28;20044;-77
2022/06/30 14:44:51;;;;;;;10.00;5.95;;;;;;;28.63;46.83;100744.19;10500947;28;20028;-79
2022/06/30 14:49:52;;;;;;;14.90;9.63;;;;;;;28.10;46.54;100742.94;10470215;28;20037;-76
2022/06/30 14:54:53;;;;;;;13.77;8.73;;;;;;;28.18;46.73;100744.56;10453276;28;20051;-77
2022/06/30 14:59:53;;;;;;;19.30;11.97;;;;;;;28.31;46.56;100729.84;10483949;28;20404;-79
2022/06/30 15:04:54;;;;;;;11.43;8.07;;;;;;;28.21;46.74;100718.50;10471387;28;20087;-80
2022/06/30 15:09:54;;;;;;;12.70;7.17;;;;;;;27.91;48.86;100720.19;10458146;28;20468;-78
2022/06/30 15:14:55;;;;;;;8.27;7.20;;;;;;;27.46;47.90;100724.00;10441954;28;20122;-78
2022/06/30 15:19:56;;;;;;;10.50;6.90;;;;;;;26.78;51.78;100715.69;10423677;28;20124;-78
2022/06/30 15:24:57;;;;;;;;;;;;;;;25.82;52.48;100715.81;10461919;28;20037;-78
2022/06/30 15:29:57;;;;;;;12.43;7.40;;;;;;;25.15;55.52;100714.19;10463975;28;19916;-78
2022/06/30 15:34:59;;;;;;;10.87;6.23;;;;;;;25.07;55.72;100716.09;10485675;28;20498;-78
2022/06/30 15:40:00;;;;;;;7.95;4.80;;;;;;;24.78;55.31;100721.00;10490374;28;20032;-78
2022/06/30 15:45:01;;;;;;;10.27;3.73;;;;;;;23.80;57.09;100728.28;10488347;28;20072;-78
2022/06/30 15:50:02;;;;;;;7.57;3.87;;;;;;;22.64;59.99;100757.50;10471481;28;20109;-77
2022/06/30 15:55:03;;;;;;;11.63;4.30;;;;;;;21.74;61.55;100789.63;10504275;28;20055;-78
2022/06/30 16:00:04;;;;;;;13.30;3.78;;;;;;;20.96;62.91;100808.09;10532898;28;20039;-77
2022/06/30 16:05:05;;;;;;;9.60;4.25;;;;;;;20.06;67.05;100777.44;10481150;28;20040;-77
2022/06/30 16:10:06;;;;;;;14.40;4.65;;;;;;;18.91;74.21;100843.47;10488131;28;20372;-77
2022/06/30 16:15:08;;;;;;;13.60;7.80;;;;;;;17.81;81.43;100893.84;10500290;28;20056;-77
2022/06/30 16:20:09;;;;;;;16.70;6.22;;;;;;;16.88;87.39;100891.09;10463391;28;20099;-77
2022/06/30 16:25:10;;;;;;;18.73;7.63;;;;;;;16.61;90.84;100923.06;10465843;28;20127;-77
2022/06/30 16:30:14;;;;;;;13.00;7.13;;;;;;;16.72;88.19;100986.75;10479892;28;20286;-76
2022/06/30 16:35:15;;;;;;;16.10;10.63;;;;;;;16.26;88.37;101023.44;10530411;28;20036;-76
2022/06/30 16:40:16;;;;;;;20.15;12.63;;;;;;;16.03;90.07;101001.69;10511778;28;20043;-77
2022/06/30 16:45:17;;;;;;;12.55;9.00;;;;;;;15.92;87.89;100996.13;10445805;28;20120;-76
2022/06/30 16:50:17;;;;;;;13.07;8.20;;;;;;;15.97;89.29;100998.03;10501869;28;20360;-74
2022/06/30 16:55:18;;;;;;;9.25;5.93;;;;;;;16.31;84.72;101013.88;10521694;28;20036;-77
2022/06/30 17:00:19;;;;;;;9.07;5.38;;;;;;;16.01;84.26;101057.06;10500336;28;20037;-76
2022/06/30 17:05:20;;;;;;;12.80;5.18;;;;;;;15.70;83.69;101064.06;10489110;28;20103;-77
2022/06/30 17:10:20;;;;;;;11.82;6.63;;;;;;;15.54;85.94;101055.69;10436018;28;20094;-77
2022/06/30 17:15:21;;;;;;;4.68;3.70;;;;;;;15.46;82.79;101030.84;10457374;28;20509;-76
2022/06/30 17:20:22;;;;;;;3.90;2.22;;;;;;;15.08;83.44;101028.81;10435802;28;20037;-77
2022/06/30 17:25:23;;;;;;;3.13;2.30;;;;;;;14.82;84.65;101007.78;10435756;28;20060;-77
2022/06/30 17:30:24;;;;;;;3.85;1.63;;;;;;;14.68;84.52;100998.50;10445020;28;20040;-78
2022/06/30 17:35:25;;;;;;;6.38;1.58;;;;;;;14.59;86.16;101004.34;10461085;28;20116;-78
2022/06/30 17:40:25;;;;;;;4.07;2.22;;;;;;;14.30;86.96;100990.22;10436475;28;20037;-78
2022/06/30 17:45:26;;;;;;;3.90;1.98;;;;;;;14.12;87.80;101045.72;10436184;28;20628;-78
2022/06/30 17:50:27;;;;;;;2.17;1.50;;;;;;;14.00;90.22;101102.31;10445896;28;20163;-77
2022/06/30 17:55:28;;;;;;;3.15;1.80;;;;;;;13.86;90.95;101100.91;10453774;28;20043;-77
2022/06/30 18:00:28;;;;;;;5.20;2.72;;;;;;;13.67;92.29;101076.53;10456382;28;20365;-77
2022/06/30 18:05:29;;;;;;;6.75;1.90;;;;;;;13.62;93.71;101094.78;10472109;28;20033;-76
2022/06/30 18:15:49;;;;;;;4.82;3.50;;;;;;;13.27;97.69;101165.22;10485785;28;20036;-76
2022/06/30 18:20:52;;;;;;;;;;;;;;;13.07;99.33;101120.63;10484822;28;20438;-75
2022/06/30 18:25:53;;;;;;;7.03;2.70;;;;;;;12.97;100.00;101125.41;10513097;28;19947;-77
2022/06/30 18:30:53;;;;;;;5.45;2.90;;;;;;;12.85;100.00;101131.94;10483296;28;20115;-77
2022/06/30 18:35:54;;;;;;;5.63;2.83;;;;;;;12.87;100.00;101161.78;10478874;28;20062;-77
2022/06/30 18:41:23;;;;;;;3.75;2.58;;;;;;;12.81;100.00;101152.78;10487699;28;20626;-77
2022/06/30 18:46:15;;;;;;;10.98;4.43;;;;;;;12.80;100.00;101140.47;10442449;28;20041;-78
2022/06/30 18:51:16;;;;;;;8.75;4.20;;;;;;;12.90;100.00;101166.28;10435760;28;20049;-76
2022/06/30 18:56:21;;;;;;;9.30;4.47;;;;;;;12.90;100.00;101182.94;10456961;28;20028;-77
2022/06/30 19:01:22;;;;;;;5.75;3.92;;;;;;;12.95;100.00;101177.00;10457423;28;20052;-77
2022/06/30 19:06:22;;;;;;;7.07;3.88;;;;;;;12.99;100.00;101165.78;10482988;28;20135;-77
2022/06/30 19:11:23;;;;;;;7.72;3.50;;;;;;;13.01;100.00;101178.16;10460736;28;20127;-76
2022/06/30 19:16:24;;;;;;;6.82;4.63;;;;;;;13.00;100.00;101168.50;10446729;28;20037;-77
2022/06/30 19:21:28;;;;;;;6.13;3.90;;;;;;;13.00;100.00;101142.22;10431260;28;20128;-77
2022/06/30 19:26:31;;;;;;;7.13;4.35;;;;;;;13.06;100.00;101105.69;10443004;28;20068;-77
2022/06/30 19:31:32;;;;;;;7.53;5.13;;;;;;;13.10;100.00;101121.56;10424852;28;20049;-76
2022/06/30 19:36:33;;;;;;;6.60;4.22;;;;;;;13.07;100.00;101139.00;10422188;28;20128;-77
2022/06/30 19:41:33;;;;;;;5.78;3.83;;;;;;;13.11;100.00;101158.41;10427197;28;20033;-76
2022/06/30 19:46:34;;;;;;;8.27;3.63;;;;;;;13.11;100.00;101203.09;10424337;28;20549;-77
2022/06/30 19:51:36;;;;;;;5.90;3.67;;;;;;;13.21;100.00;101262.22;10440173;28;20148;-77
2022/06/30 19:56:37;;;;;;;5.55;2.97;;;;;;;13.21;100.00;101220.16;10443390;28;20488;-77
2022/06/30 20:01:37;;;;;;;4.95;3.42;;;;;;;13.07;100.00;101151.25;10458958;28;20037;-77
2022/06/30 20:06:38;;;;;;;7.00;5.07;;;;;;;12.88;100.00;101171.47;10459592;28;20076;-76
2022/06/30 20:11:38;;;;;;;8.02;4.93;;;;;;;12.78;100.00;101199.09;10516470;28;20040;-77
2022/06/30 20:16:39;;;;;;;7.38;4.53;;;;;;;12.77;100.00;101212.13;10494542;28;20072;-77
2022/06/30 20:21:41;;;;;;;9.82;5.15;;;;;;;12.80;100.00;101212.25;10499599;28;20064;-77
2022/06/30 20:26:41;;;;;;;10.18;6.38;;;;;;;12.86;100.00;101230.91;10523430;28;20483;-78
2022/06/30 20:31:42;;;;;;;11.00;7.85;;;;;;;12.85;100.00;101242.25;10488949;28;20075;-78
2022/06/30 20:36:42;;;;;;;12.05;8.40;;;;;;;12.84;100.00;101252.72;10512272;28;20483;-78
2022/06/30 20:41:43;;;;;;;12.80;8.00;;;;;;;12.82;100.00;101264.88;10512328;28;20044;-77
2022/06/30 20:46:43;;;;;;;13.23;8.15;;;;;;;12.87;100.00;101289.63;10505925;28;20128;-77
2022/06/30 20:51:44;;;;;;;12.88;8.73;;;;;;;12.83;100.00;101258.81;10521466;28;20039;-78
2022/06/30 20:56:46;;;;;;;12.63;8.98;;;;;;;12.84;100.00;101260.59;10512066;28;20066;-78
2022/06/30 21:01:47;;;;;;;15.15;9.57;;;;;;;12.83;100.00;101278.06;10489087;28;20119;-77
2022/06/30 21:06:47;;;;;;;19.95;13.02;;;;;;;12.81;100.00;101303.38;10488015;28;20037;-78
2022/06/30 21:11:48;;;;;;;18.17;12.57;;;;;;;12.85;100.00;101297.41;10473470;28;20064;-77
2022/06/30 21:16:49;;;;;;;26.38;14.43;;;;;;;12.91;100.00;101292.44;10498332;28;20147;-79
2022/06/30 21:21:49;;;;;;;23.85;15.05;;;;;;;12.91;100.00;101308.22;10468796;28;20040;-77
2022/06/30 21:26:50;;;;;;;26.75;17.35;;;;;;;12.90;100.00;101330.06;10495574;28;20052;-78
2022/06/30 21:31:50;;;;;;;27.23;18.85;;;;;;;12.93;100.00;101360.84;10509184;28;20122;-78
2022/06/30 21:36:51;;;;;;;26.73;19.58;;;;;;;12.90;100.00;101356.31;10487291;28;20116;-78
2022/06/30 21:41:51;;;;;;;29.50;21.65;;;;;;;12.84;100.00;101363.03;10507584;28;20123;-77
2022/06/30 21:46:52;;;;;;;39.47;25.52;;;;;;;12.85;100.00;101377.97;10526701;28;20040;-77
2022/06/30 21:51:52;;;;;;;37.03;26.30;;;;;;;12.83;100.00;101363.88;10522423;28;20031;-77
2022/06/30 21:56:53;;;;;;;34.55;24.52;;;;;;;12.77;100.00;101372.34;10526523;28;20036;-78
2022/06/30 22:01:54;;;;;;;37.53;24.05;;;;;;;12.71;100.00;101362.47;10486957;28;20049;-78
2022/06/30 22:06:55;;;;;;;39.72;26.27;;;;;;;12.68;100.00;101369.28;10484195;28;20048;-78
2022/06/30 22:11:56;;;;;;;40.22;28.23;;;;;;;12.69;100.00;101382.50;10503078;28;20032;-78
2022/06/30 22:16:56;;;;;;;44.33;27.20;;;;;;;12.54;100.00;101364.28;10501192;28;20504;-78
2022/06/30 22:21:57;;;;;;;43.60;25.33;;;;;;;12.38;100.00;101360.03;10493746;28;20044;-77
2022/06/30 22:26:58;;;;;;;36.97;23.90;;;;;;;12.22;100.00;101370.63;10470009;28;20131;-78
2022/06/30 22:31:58;;;;;;;44.60;27.92;;;;;;;12.17;100.00;101386.13;10519922;28;20074;-78
2022/06/30 22:36:59;;;;;;;40.67;26.85;;;;;;;12.12;100.00;101391.16;10508288;28;20463;-78
2022/06/30 22:41:59;;;;;;;40.50;24.40;;;;;;;12.27;100.00;101409.38;10504457;28;20037;-78
2022/06/30 22:47:00;;;;;;;40.75;26.05;;;;;;;12.34;100.00;101414.09;10495309;28;20052;-78
2022/06/30 22:52:01;;;;;;;28.83;22.10;;;;;;;12.38;100.00;101402.03;10489541;28;20507;-78
2022/06/30 22:57:04;;;;;;;32.33;21.15;;;;;;;12.37;100.00;101389.75;10511067;28;20032;-78
2022/06/30 23:02:04;;;;;;;;;;;;;;;12.41;100.00;101403.91;10486682;28;20048;-78
2022/06/30 23:07:04;;;;;;;31.02;18.98;;;;;;;12.41;100.00;101386.44;10525239;28;19972;-78